sensor_id;sensor_type;location;lat;lon;timestamp;pressure;altitude;pressure_sealevel;temperature;humidity
21980;BME280;11154;48.558;9.234;2023-04-03T00:01:36;98189.69;;;14.55;40.20
21980;BME280;11154;48.558;9.234;2023-04-03T00:03:38;98188.50;;;14.57;40.27
21980;BME280;11154;48.558;9.234;2023-04-03T00:05:41;98193.19;;;14.63;40.08
21980;BME280;11154;48.558;9.234;2023-04-03T00:07:43;98187.13;;;14.69;39.94
21980;BME280;11154;48.558;9.234;2023-04-03T00:09:44;98187.28;;;14.76;39.82
21980;BME280;11154;48.558;9.234;2023-04-03T00:11:46;98182.91;;;14.83;39.63
21980;BME280;11154;48.558;9.234;2023-04-03T00:13:48;98181.22;;;14.90;39.57
21980;BME280;11154;48.558;9.234;2023-04-03T00:15:51;98190.59;;;14.94;39.29
21980;BME280;11154;48.558;9.234;2023-04-03T00:17:53;98192.22;;;15.03;39.15
21980;BME280;11154;48.558;9.234;2023-04-03T00:19:55;98189.84;;;15.08;39.03
21980;BME280;11154;48.558;9.234;2023-04-03T00:21:57;98186.84;;;15.11;38.85
21980;BME280;11154;48.558;9.234;2023-04-03T00:23:58;98185.78;;;15.19;38.79
21980;BME280;11154;48.558;9.234;2023-04-03T00:26:00;98181.94;;;15.22;38.67
21980;BME280;11154;48.558;9.234;2023-04-03T00:28:03;98174.88;;;15.29;38.67
21980;BME280;11154;48.558;9.234;2023-04-03T00:30:07;98184.47;;;15.31;38.27
21980;BME280;11154;48.558;9.234;2023-04-03T00:32:10;98185.28;;;15.32;38.21
21980;BME280;11154;48.558;9.234;2023-04-03T00:34:11;98174.22;;;15.35;38.14
21980;BME280;11154;48.558;9.234;2023-04-03T00:36:13;98182.38;;;15.41;38.24
21980;BME280;11154;48.558;9.234;2023-04-03T00:38:15;98184.38;;;15.47;38.06
21980;BME280;11154;48.558;9.234;2023-04-03T00:40:17;98184.38;;;15.47;37.75
21980;BME280;11154;48.558;9.234;2023-04-03T00:42:18;98188.03;;;15.46;37.66
21980;BME280;11154;48.558;9.234;2023-04-03T00:44:23;98177.69;;;15.43;37.61
21980;BME280;11154;48.558;9.234;2023-04-03T00:46:43;98183.53;;;15.47;37.76
21980;BME280;11154;48.558;9.234;2023-04-03T00:48:47;98189.38;;;15.50;37.57
21980;BME280;11154;48.558;9.234;2023-04-03T00:50:50;98185.84;;;15.50;37.57
21980;BME280;11154;48.558;9.234;2023-04-03T00:52:54;98190.53;;;15.48;37.52
21980;BME280;11154;48.558;9.234;2023-04-03T00:54:59;98187.72;;;15.49;37.34
21980;BME280;11154;48.558;9.234;2023-04-03T00:57:03;98186.38;;;15.45;37.37
21980;BME280;11154;48.558;9.234;2023-04-03T00:59:11;98187.41;;;15.44;37.30
21980;BME280;11154;48.558;9.234;2023-04-03T01:01:18;98182.56;;;15.40;37.44
21980;BME280;11154;48.558;9.234;2023-04-03T01:03:23;98185.25;;;15.40;37.49
21980;BME280;11154;48.558;9.234;2023-04-03T01:05:26;98185.06;;;15.41;37.32
21980;BME280;11154;48.558;9.234;2023-04-03T01:07:30;98189.53;;;15.49;37.54
21980;BME280;11154;48.558;9.234;2023-04-03T01:09:34;98179.16;;;15.54;37.23
21980;BME280;11154;48.558;9.234;2023-04-03T01:11:36;98178.47;;;15.52;37.07
21980;BME280;11154;48.558;9.234;2023-04-03T01:13:37;98185.34;;;15.54;37.10
21980;BME280;11154;48.558;9.234;2023-04-03T01:15:40;98182.47;;;15.56;36.90
21980;BME280;11154;48.558;9.234;2023-04-03T01:17:43;98188.31;;;15.59;36.89
21980;BME280;11154;48.558;9.234;2023-04-03T01:19:47;98188.31;;;15.59;36.88
21980;BME280;11154;48.558;9.234;2023-04-03T01:22:10;98181.91;;;15.68;36.94
21980;BME280;11154;48.558;9.234;2023-04-03T01:24:27;98188.59;;;15.64;36.76
21980;BME280;11154;48.558;9.234;2023-04-03T01:26:31;98182.09;;;15.67;36.82
21980;BME280;11154;48.558;9.234;2023-04-03T01:28:34;98188.75;;;15.71;36.63
21980;BME280;11154;48.558;9.234;2023-04-03T01:30:43;98183.72;;;15.68;36.63
21980;BME280;11154;48.558;9.234;2023-04-03T01:32:47;98188.28;;;15.67;36.59
21980;BME280;11154;48.558;9.234;2023-04-03T01:34:48;98185.59;;;15.67;36.71
21980;BME280;11154;48.558;9.234;2023-04-03T01:36:50;98180.22;;;15.67;36.57
21980;BME280;11154;48.558;9.234;2023-04-03T01:38:53;98187.91;;;15.70;36.61
21980;BME280;11154;48.558;9.234;2023-04-03T01:40:55;98183.56;;;15.69;36.37
21980;BME280;11154;48.558;9.234;2023-04-03T01:42:56;98189.06;;;15.76;36.38
21980;BME280;11154;48.558;9.234;2023-04-03T01:44:58;98188.75;;;15.71;36.23
21980;BME280;11154;48.558;9.234;2023-04-03T01:46:59;98189.72;;;15.78;36.25
21980;BME280;11154;48.558;9.234;2023-04-03T01:49:03;98177.09;;;15.86;36.26
21980;BME280;11154;48.558;9.234;2023-04-03T01:51:05;98182.75;;;15.91;36.27
21980;BME280;11154;48.558;9.234;2023-04-03T01:53:07;98188.59;;;15.94;36.21
21980;BME280;11154;48.558;9.234;2023-04-03T01:55:09;98194.09;;;16.01;35.99
21980;BME280;11154;48.558;9.234;2023-04-03T01:57:11;98181.31;;;16.03;35.85
21980;BME280;11154;48.558;9.234;2023-04-03T01:59:13;98186.63;;;16.11;35.72
21980;BME280;11154;48.558;9.234;2023-04-03T02:01:17;98184.59;;;16.13;35.46
21980;BME280;11154;48.558;9.234;2023-04-03T02:03:19;98183.69;;;16.20;35.51
21980;BME280;11154;48.558;9.234;2023-04-03T02:05:22;98187.53;;;16.26;35.36
21980;BME280;11154;48.558;9.234;2023-04-03T02:07:24;98188.84;;;16.30;35.20
21980;BME280;11154;48.558;9.234;2023-04-03T02:09:25;98187.66;;;16.32;35.02
21980;BME280;11154;48.558;9.234;2023-04-03T02:11:27;98189.03;;;16.28;34.98
21980;BME280;11154;48.558;9.234;2023-04-03T02:13:29;98192.03;;;16.25;34.82
21980;BME280;11154;48.558;9.234;2023-04-03T02:15:30;98197.09;;;16.28;34.92
21980;BME280;11154;48.558;9.234;2023-04-03T02:17:32;98201.25;;;16.31;34.97
21980;BME280;11154;48.558;9.234;2023-04-03T02:19:34;98200.34;;;16.38;34.92
21980;BME280;11154;48.558;9.234;2023-04-03T02:21:37;98197.94;;;16.43;34.82
21980;BME280;11154;48.558;9.234;2023-04-03T02:23:39;98199.81;;;16.43;34.61
21980;BME280;11154;48.558;9.234;2023-04-03T02:25:40;98186.50;;;16.49;34.64
21980;BME280;11154;48.558;9.234;2023-04-03T02:27:42;98199.03;;;16.57;34.27
21980;BME280;11154;48.558;9.234;2023-04-03T02:29:43;98193.75;;;16.63;34.34
21980;BME280;11154;48.558;9.234;2023-04-03T02:31:45;98195.88;;;16.67;34.18
21980;BME280;11154;48.558;9.234;2023-04-03T02:33:47;98196.00;;;16.74;34.08
21980;BME280;11154;48.558;9.234;2023-04-03T02:35:52;98195.63;;;16.77;33.92
21980;BME280;11154;48.558;9.234;2023-04-03T02:37:55;98189.69;;;16.81;33.89
21980;BME280;11154;48.558;9.234;2023-04-03T02:39:57;98196.38;;;16.85;33.88
21980;BME280;11154;48.558;9.234;2023-04-03T02:41:58;98186.47;;;16.86;33.67
21980;BME280;11154;48.558;9.234;2023-04-03T02:44:00;98187.56;;;16.91;33.72
21980;BME280;11154;48.558;9.234;2023-04-03T02:46:02;98186.19;;;16.95;33.80
21980;BME280;11154;48.558;9.234;2023-04-03T02:48:04;98195.19;;;17.02;33.67
21980;BME280;11154;48.558;9.234;2023-04-03T02:50:06;98191.75;;;17.08;33.64
21980;BME280;11154;48.558;9.234;2023-04-03T02:52:08;98196.75;;;17.11;33.56
21980;BME280;11154;48.558;9.234;2023-04-03T02:54:11;98194.72;;;17.13;33.44
21980;BME280;11154;48.558;9.234;2023-04-03T02:56:13;98194.72;;;17.13;33.06
21980;BME280;11154;48.558;9.234;2023-04-03T02:58:14;98203.06;;;17.18;33.13
21980;BME280;11154;48.558;9.234;2023-04-03T03:00:17;98192.97;;;17.20;33.22
21980;BME280;11154;48.558;9.234;2023-04-03T03:02:18;98204.06;;;17.17;33.09
21980;BME280;11154;48.558;9.234;2023-04-03T03:04:19;98200.28;;;17.12;33.07
21980;BME280;11154;48.558;9.234;2023-04-03T03:06:21;98199.97;;;17.07;33.15
21980;BME280;11154;48.558;9.234;2023-04-03T03:08:23;98194.19;;;17.03;33.37
21980;BME280;11154;48.558;9.234;2023-04-03T03:10:26;98197.28;;;16.92;33.42
21980;BME280;11154;48.558;9.234;2023-04-03T03:12:27;98197.03;;;16.87;33.43
21980;BME280;11154;48.558;9.234;2023-04-03T03:14:29;98195.91;;;16.82;33.48
21980;BME280;11154;48.558;9.234;2023-04-03T03:16:31;98197.09;;;16.79;33.57
21980;BME280;11154;48.558;9.234;2023-04-03T03:18:32;98192.28;;;16.75;33.56
21980;BME280;11154;48.558;9.234;2023-04-03T03:20:34;98187.81;;;16.67;33.63
21980;BME280;11154;48.558;9.234;2023-04-03T03:22:36;98190.22;;;16.63;33.75
21980;BME280;11154;48.558;9.234;2023-04-03T03:24:37;98188.22;;;16.64;33.76
21980;BME280;11154;48.558;9.234;2023-04-03T03:26:40;98189.84;;;16.65;33.87
21980;BME280;11154;48.558;9.234;2023-04-03T03:28:42;98189.09;;;16.57;33.54
21980;BME280;11154;48.558;9.234;2023-04-03T03:30:44;98192.63;;;16.58;33.43
21980;BME280;11154;48.558;9.234;2023-04-03T03:32:46;98192.97;;;16.55;33.98
21980;BME280;11154;48.558;9.234;2023-04-03T03:34:47;98188.00;;;16.52;33.87
21980;BME280;11154;48.558;9.234;2023-04-03T03:36:49;98188.25;;;16.42;33.85
21980;BME280;11154;48.558;9.234;2023-04-03T03:38:50;98192.41;;;16.45;34.05
21980;BME280;11154;48.558;9.234;2023-04-03T03:40:52;98185.72;;;16.41;33.99
21980;BME280;11154;48.558;9.234;2023-04-03T03:42:55;98186.44;;;16.35;34.05
21980;BME280;11154;48.558;9.234;2023-04-03T03:44:57;98189.69;;;16.30;34.13
21980;BME280;11154;48.558;9.234;2023-04-03T03:46:58;98180.59;;;16.31;34.19
21980;BME280;11154;48.558;9.234;2023-04-03T03:49:00;98182.66;;;16.29;34.13
21980;BME280;11154;48.558;9.234;2023-04-03T03:51:01;98183.47;;;16.30;34.37
21980;BME280;11154;48.558;9.234;2023-04-03T03:53:03;98183.69;;;16.20;34.23
21980;BME280;11154;48.558;9.234;2023-04-03T03:55:05;98183.59;;;16.14;34.36
21980;BME280;11154;48.558;9.234;2023-04-03T03:57:07;98181.53;;;16.16;34.44
21980;BME280;11154;48.558;9.234;2023-04-03T03:59:12;98186.09;;;16.15;34.57
21980;BME280;11154;48.558;9.234;2023-04-03T04:01:13;98186.91;;;16.16;34.47
21980;BME280;11154;48.558;9.234;2023-04-03T04:03:15;98189.44;;;16.17;34.62
21980;BME280;11154;48.558;9.234;2023-04-03T04:05:17;98185.09;;;16.16;34.51
21980;BME280;11154;48.558;9.234;2023-04-03T04:07:18;98193.59;;;16.20;34.41
21980;BME280;11154;48.558;9.234;2023-04-03T04:09:20;98188.25;;;16.20;34.40
21980;BME280;11154;48.558;9.234;2023-04-03T04:11:22;98188.88;;;16.22;34.40
21980;BME280;11154;48.558;9.234;2023-04-03T04:13:23;98189.84;;;16.29;34.45
21980;BME280;11154;48.558;9.234;2023-04-03T04:15:26;98185.97;;;16.31;34.19
21980;BME280;11154;48.558;9.234;2023-04-03T04:17:28;98186.81;;;16.32;34.29
21980;BME280;11154;48.558;9.234;2023-04-03T04:19:30;98190.81;;;16.36;34.11
21980;BME280;11154;48.558;9.234;2023-04-03T04:21:31;98189.81;;;16.37;34.04
21980;BME280;11154;48.558;9.234;2023-04-03T04:23:33;98195.06;;;16.30;34.06
21980;BME280;11154;48.558;9.234;2023-04-03T04:25:34;98192.69;;;16.27;33.84
21980;BME280;11154;48.558;9.234;2023-04-03T04:27:36;98185.84;;;16.25;34.04
21980;BME280;11154;48.558;9.234;2023-04-03T04:29:38;98191.56;;;16.22;33.73
21980;BME280;11154;48.558;9.234;2023-04-03T04:31:41;98184.41;;;16.14;34.02
21980;BME280;11154;48.558;9.234;2023-04-03T04:33:43;98187.28;;;16.13;34.10
21980;BME280;11154;48.558;9.234;2023-04-03T04:35:47;98190.25;;;16.18;34.22
21980;BME280;11154;48.558;9.234;2023-04-03T04:37:48;98185.25;;;16.15;33.84
21980;BME280;11154;48.558;9.234;2023-04-03T04:39:50;98189.97;;;16.13;33.89
21980;BME280;11154;48.558;9.234;2023-04-03T04:41:51;98189.44;;;16.17;34.04
21980;BME280;11154;48.558;9.234;2023-04-03T04:43:53;98192.59;;;16.21;33.92
21980;BME280;11154;48.558;9.234;2023-04-03T04:46:02;98189.25;;;16.19;33.69
21980;BME280;11154;48.558;9.234;2023-04-03T04:48:06;98195.63;;;16.18;33.63
21980;BME280;11154;48.558;9.234;2023-04-03T04:50:09;98194.44;;;16.20;33.44
21980;BME280;11154;48.558;9.234;2023-04-03T04:52:10;98196.94;;;16.22;33.26
21980;BME280;11154;48.558;9.234;2023-04-03T04:54:12;98192.88;;;16.26;33.07
21980;BME280;11154;48.558;9.234;2023-04-03T04:56:14;98195.06;;;16.30;33.08
21980;BME280;11154;48.558;9.234;2023-04-03T04:58:15;98197.19;;;16.35;33.11
21980;BME280;11154;48.558;9.234;2023-04-03T05:00:18;98196.38;;;16.34;32.92
21980;BME280;11154;48.558;9.234;2023-04-03T05:02:19;98199.59;;;16.30;32.63
21980;BME280;11154;48.558;9.234;2023-04-03T05:04:22;98198.13;;;16.19;32.52
21980;BME280;11154;48.558;9.234;2023-04-03T05:06:24;98198.59;;;16.23;32.39
21980;BME280;11154;48.558;9.234;2023-04-03T05:08:26;98201.09;;;16.24;32.25
21980;BME280;11154;48.558;9.234;2023-04-03T05:10:27;98202.97;;;16.24;32.19
21980;BME280;11154;48.558;9.234;2023-04-03T05:12:29;98207.13;;;16.26;31.98
21980;BME280;11154;48.558;9.234;2023-04-03T05:14:31;98201.59;;;16.28;31.71
21980;BME280;11154;48.558;9.234;2023-04-03T05:16:33;98202.09;;;16.31;31.80
21980;BME280;11154;48.558;9.234;2023-04-03T05:18:35;98209.00;;;16.26;31.61
21980;BME280;11154;48.558;9.234;2023-04-03T05:20:38;98205.97;;;16.29;31.36
21980;BME280;11154;48.558;9.234;2023-04-03T05:22:39;98210.31;;;16.30;31.38
21980;BME280;11154;48.558;9.234;2023-04-03T05:24:41;98209.97;;;16.33;31.35
21980;BME280;11154;48.558;9.234;2023-04-03T05:26:43;98216.47;;;16.38;31.20
21980;BME280;11154;48.558;9.234;2023-04-03T05:28:44;98212.22;;;16.44;31.08
21980;BME280;11154;48.558;9.234;2023-04-03T05:30:52;98216.22;;;16.48;31.01
21980;BME280;11154;48.558;9.234;2023-04-03T05:32:54;98217.28;;;16.61;30.85
21980;BME280;11154;48.558;9.234;2023-04-03T05:34:56;98219.78;;;16.63;30.76
21980;BME280;11154;48.558;9.234;2023-04-03T05:36:58;98213.88;;;16.67;30.74
21980;BME280;11154;48.558;9.234;2023-04-03T05:39:00;98216.28;;;16.76;30.67
21980;BME280;11154;48.558;9.234;2023-04-03T05:41:02;98208.38;;;16.75;30.64
21980;BME280;11154;48.558;9.234;2023-04-03T05:43:04;98214.41;;;16.77;30.76
21980;BME280;11154;48.558;9.234;2023-04-03T05:45:06;98212.75;;;16.76;30.84
21980;BME280;11154;48.558;9.234;2023-04-03T05:47:08;98214.41;;;16.77;30.65
21980;BME280;11154;48.558;9.234;2023-04-03T05:49:09;98206.56;;;16.75;30.77
21980;BME280;11154;48.558;9.234;2023-04-03T05:51:15;98221.00;;;16.74;30.86
21980;BME280;11154;48.558;9.234;2023-04-03T05:53:21;98213.94;;;16.73;30.75
21980;BME280;11154;48.558;9.234;2023-04-03T05:55:23;98221.00;;;16.74;30.82
21980;BME280;11154;48.558;9.234;2023-04-03T05:57:25;98216.63;;;16.73;30.84
21980;BME280;11154;48.558;9.234;2023-04-03T05:59:26;98225.06;;;16.70;30.73
21980;BME280;11154;48.558;9.234;2023-04-03T06:01:28;98220.06;;;16.67;30.27
21980;BME280;11154;48.558;9.234;2023-04-03T06:03:30;98232.81;;;16.65;30.22
21980;BME280;11154;48.558;9.234;2023-04-03T06:05:32;98223.75;;;16.66;30.61
21980;BME280;11154;48.558;9.234;2023-04-03T06:07:35;98226.28;;;16.68;30.34
21980;BME280;11154;48.558;9.234;2023-04-03T06:09:38;98230.31;;;16.64;29.99
21980;BME280;11154;48.558;9.234;2023-04-03T06:11:40;98236.81;;;16.55;30.03
21980;BME280;11154;48.558;9.234;2023-04-03T06:13:42;98237.78;;;16.40;30.16
21980;BME280;11154;48.558;9.234;2023-04-03T06:15:43;98230.78;;;16.31;30.21
21980;BME280;11154;48.558;9.234;2023-04-03T06:17:45;98239.88;;;16.22;30.36
21980;BME280;11154;48.558;9.234;2023-04-03T06:19:47;98236.34;;;15.99;30.36
21980;BME280;11154;48.558;9.234;2023-04-03T06:21:48;98242.84;;;15.82;30.81
21980;BME280;11154;48.558;9.234;2023-04-03T06:23:50;98249.97;;;15.59;31.04
21980;BME280;11154;48.558;9.234;2023-04-03T06:25:54;98241.34;;;15.41;31.52
21980;BME280;11154;48.558;9.234;2023-04-03T06:27:55;98250.41;;;15.40;31.79
21980;BME280;11154;48.558;9.234;2023-04-03T06:29:57;98250.56;;;15.47;31.77
21980;BME280;11154;48.558;9.234;2023-04-03T06:31:59;98250.97;;;15.58;31.81
21980;BME280;11154;48.558;9.234;2023-04-03T06:34:00;98253.66;;;15.58;31.84
21980;BME280;11154;48.558;9.234;2023-04-03T06:36:04;98250.06;;;15.43;31.70
21980;BME280;11154;48.558;9.234;2023-04-03T06:38:06;98248.91;;;15.38;32.15
21980;BME280;11154;48.558;9.234;2023-04-03T06:40:18;98253.16;;;15.24;32.12
21980;BME280;11154;48.558;9.234;2023-04-03T06:42:23;98253.16;;;15.09;32.16
21980;BME280;11154;48.558;9.234;2023-04-03T06:44:25;98258.88;;;14.98;32.61
21980;BME280;11154;48.558;9.234;2023-04-03T06:46:27;98255.22;;;14.83;32.72
21980;BME280;11154;48.558;9.234;2023-04-03T06:48:28;98263.59;;;14.80;32.97
21980;BME280;11154;48.558;9.234;2023-04-03T06:50:30;98262.91;;;14.78;32.98
21980;BME280;11154;48.558;9.234;2023-04-03T06:52:32;98263.59;;;14.72;32.91
21980;BME280;11154;48.558;9.234;2023-04-03T06:54:34;98259.09;;;14.64;33.22
21980;BME280;11154;48.558;9.234;2023-04-03T06:56:36;98263.09;;;14.60;33.35
21980;BME280;11154;48.558;9.234;2023-04-03T06:58:39;98260.28;;;14.62;33.62
21980;BME280;11154;48.558;9.234;2023-04-03T07:00:41;98259.59;;;14.68;33.59
21980;BME280;11154;48.558;9.234;2023-04-03T07:02:42;98263.28;;;14.67;33.48
21980;BME280;11154;48.558;9.234;2023-04-03T07:04:44;98265.78;;;14.68;33.34
21980;BME280;11154;48.558;9.234;2023-04-03T07:06:45;98261.25;;;14.69;33.58
21980;BME280;11154;48.558;9.234;2023-04-03T07:08:47;98257.06;;;14.66;33.76
21980;BME280;11154;48.558;9.234;2023-04-03T07:10:49;98257.44;;;14.71;33.81
21980;BME280;11154;48.558;9.234;2023-04-03T07:12:51;98256.88;;;14.76;33.98
21980;BME280;11154;48.558;9.234;2023-04-03T07:14:54;98255.88;;;14.77;33.71
21980;BME280;11154;48.558;9.234;2023-04-03T07:16:56;98252.22;;;14.78;33.64
21980;BME280;11154;48.558;9.234;2023-04-03T07:18:57;98258.94;;;14.74;33.86
21980;BME280;11154;48.558;9.234;2023-04-03T07:20:59;98255.25;;;14.67;33.91
21980;BME280;11154;48.558;9.234;2023-04-03T07:23:01;98255.41;;;14.57;34.10
21980;BME280;11154;48.558;9.234;2023-04-03T07:25:04;98265.13;;;14.58;34.48
21980;BME280;11154;48.558;9.234;2023-04-03T07:27:07;98273.16;;;14.50;34.38
21980;BME280;11154;48.558;9.234;2023-04-03T07:29:09;98269.47;;;14.43;34.71
21980;BME280;11154;48.558;9.234;2023-04-03T07:31:12;98271.28;;;14.43;35.15
21980;BME280;11154;48.558;9.234;2023-04-03T07:33:17;98275.16;;;14.48;35.08
21980;BME280;11154;48.558;9.234;2023-04-03T07:35:19;98270.81;;;14.55;34.89
21980;BME280;11154;48.558;9.234;2023-04-03T07:37:20;98277.16;;;14.62;34.82
21980;BME280;11154;48.558;9.234;2023-04-03T07:39:22;98274.66;;;14.61;34.49
21980;BME280;11154;48.558;9.234;2023-04-03T07:41:24;98274.66;;;14.61;34.15
21980;BME280;11154;48.558;9.234;2023-04-03T07:43:26;98271.97;;;14.53;34.41
21980;BME280;11154;48.558;9.234;2023-04-03T07:45:28;98279.50;;;14.49;34.46
21980;BME280;11154;48.558;9.234;2023-04-03T07:47:31;98278.50;;;14.50;34.97
21980;BME280;11154;48.558;9.234;2023-04-03T07:49:33;98282.34;;;14.56;35.08
21980;BME280;11154;48.558;9.234;2023-04-03T07:51:38;98282.69;;;14.53;34.79
21980;BME280;11154;48.558;9.234;2023-04-03T07:53:40;98277.66;;;14.50;34.72
21980;BME280;11154;48.558;9.234;2023-04-03T07:55:42;98268.63;;;14.51;34.67
21980;BME280;11154;48.558;9.234;2023-04-03T07:57:44;98277.81;;;14.48;34.95
21980;BME280;11154;48.558;9.234;2023-04-03T07:59:45;98283.38;;;14.55;35.29
21980;BME280;11154;48.558;9.234;2023-04-03T08:01:47;98279.16;;;14.52;35.24
21980;BME280;11154;48.558;9.234;2023-04-03T08:03:50;98280.69;;;14.47;34.94
21980;BME280;11154;48.558;9.234;2023-04-03T08:05:51;98269.13;;;14.31;35.20
21980;BME280;11154;48.558;9.234;2023-04-03T08:07:53;98286.00;;;14.23;35.31
21980;BME280;11154;48.558;9.234;2023-04-03T08:09:55;98273.63;;;14.22;35.80
21980;BME280;11154;48.558;9.234;2023-04-03T08:11:57;98287.34;;;14.27;35.93
21980;BME280;11154;48.558;9.234;2023-04-03T08:13:59;98291.03;;;14.34;35.78
21980;BME280;11154;48.558;9.234;2023-04-03T08:16:08;98293.38;;;14.37;35.87
21980;BME280;11154;48.558;9.234;2023-04-03T08:18:10;98296.38;;;14.34;35.47
21980;BME280;11154;48.558;9.234;2023-04-03T08:20:13;98293.38;;;14.29;35.38
21980;BME280;11154;48.558;9.234;2023-04-03T08:22:15;98298.06;;;14.27;35.24
21980;BME280;11154;48.558;9.234;2023-04-03T08:24:16;98293.22;;;14.31;35.25
21980;BME280;11154;48.558;9.234;2023-04-03T08:26:20;98291.03;;;14.34;35.24
21980;BME280;11154;48.558;9.234;2023-04-03T08:28:22;98294.38;;;14.44;35.44
21980;BME280;11154;48.558;9.234;2023-04-03T08:30:23;98294.38;;;14.52;35.72
21980;BME280;11154;48.558;9.234;2023-04-03T08:32:25;98296.41;;;14.58;35.56
21980;BME280;11154;48.558;9.234;2023-04-03T08:34:27;98292.22;;;14.63;35.67
21980;BME280;11154;48.558;9.234;2023-04-03T08:36:30;98295.72;;;14.64;35.36
21980;BME280;11154;48.558;9.234;2023-04-03T08:38:32;98294.03;;;14.63;35.49
21980;BME280;11154;48.558;9.234;2023-04-03T08:40:34;98293.72;;;14.66;35.19
21980;BME280;11154;48.558;9.234;2023-04-03T08:42:44;98296.72;;;14.71;35.02
21980;BME280;11154;48.558;9.234;2023-04-03T08:44:55;98303.91;;;14.78;34.98
21980;BME280;11154;48.558;9.234;2023-04-03T08:47:11;98304.22;;;14.91;34.99
21980;BME280;11154;48.558;9.234;2023-04-03T08:49:25;98298.69;;;15.01;35.27
21980;BME280;11154;48.558;9.234;2023-04-03T08:51:30;98302.41;;;15.00;35.04
21980;BME280;11154;48.558;9.234;2023-04-03T08:53:35;98308.72;;;15.07;35.47
21980;BME280;11154;48.558;9.234;2023-04-03T08:55:40;98300.19;;;15.19;34.91
21980;BME280;11154;48.558;9.234;2023-04-03T08:57:45;98304.72;;;15.26;34.38
21980;BME280;11154;48.558;9.234;2023-04-03T08:59:48;98305.19;;;15.30;33.94
21980;BME280;11154;48.558;9.234;2023-04-03T09:01:51;98308.06;;;15.28;33.92
21980;BME280;11154;48.558;9.234;2023-04-03T09:03:53;98305.56;;;15.27;33.98
21980;BME280;11154;48.558;9.234;2023-04-03T09:05:57;98310.06;;;15.26;34.24
21980;BME280;11154;48.558;9.234;2023-04-03T09:08:05;98308.88;;;15.29;33.98
21980;BME280;11154;48.558;9.234;2023-04-03T09:10:10;98303.88;;;15.26;34.22
21980;BME280;11154;48.558;9.234;2023-04-03T09:12:17;98308.75;;;15.22;33.98
21980;BME280;11154;48.558;9.234;2023-04-03T09:14:26;98303.38;;;15.22;34.00
21980;BME280;11154;48.558;9.234;2023-04-03T09:16:38;98301.38;;;15.24;34.00
21980;BME280;11154;48.558;9.234;2023-04-03T09:18:44;98304.34;;;15.21;33.74
21980;BME280;11154;48.558;9.234;2023-04-03T09:20:55;98303.69;;;15.19;33.43
21980;BME280;11154;48.558;9.234;2023-04-03T09:22:59;98303.53;;;15.21;33.32
21980;BME280;11154;48.558;9.234;2023-04-03T09:25:09;98304.72;;;15.18;33.28
21980;BME280;11154;48.558;9.234;2023-04-03T09:27:12;98309.03;;;15.19;33.86
21980;BME280;11154;48.558;9.234;2023-04-03T09:29:17;98302.38;;;15.15;34.03
21980;BME280;11154;48.558;9.234;2023-04-03T09:31:23;98309.41;;;15.24;34.28
21980;BME280;11154;48.558;9.234;2023-04-03T09:33:25;98301.69;;;15.21;34.11
21980;BME280;11154;48.558;9.234;2023-04-03T09:35:28;98294.63;;;15.20;33.98
21980;BME280;11154;48.558;9.234;2023-04-03T09:37:38;98306.72;;;15.16;34.26
21980;BME280;11154;48.558;9.234;2023-04-03T09:39:50;98306.03;;;15.14;34.22
21980;BME280;11154;48.558;9.234;2023-04-03T09:42:00;98302.88;;;15.11;34.04
21980;BME280;11154;48.558;9.234;2023-04-03T09:44:01;98309.41;;;15.09;34.02
21980;BME280;11154;48.558;9.234;2023-04-03T09:46:19;98303.56;;;14.97;33.13
21980;BME280;11154;48.558;9.234;2023-04-03T09:48:25;98307.59;;;14.93;33.52
21980;BME280;11154;48.558;9.234;2023-04-03T09:50:28;98300.06;;;14.89;34.00
21980;BME280;11154;48.558;9.234;2023-04-03T09:52:30;98306.59;;;14.86;33.81
21980;BME280;11154;48.558;9.234;2023-04-03T09:54:34;98303.59;;;14.81;33.90
21980;BME280;11154;48.558;9.234;2023-04-03T09:56:41;98297.88;;;14.84;34.21
21980;BME280;11154;48.558;9.234;2023-04-03T09:59:07;98301.72;;;14.82;34.00
21980;BME280;11154;48.558;9.234;2023-04-03T10:01:22;98301.75;;;14.74;34.17
21980;BME280;11154;48.558;9.234;2023-04-03T10:03:28;98292.88;;;14.73;33.86
21980;BME280;11154;48.558;9.234;2023-04-03T10:05:33;98294.72;;;14.81;34.01
21980;BME280;11154;48.558;9.234;2023-04-03T10:07:36;98294.56;;;14.74;34.08
21980;BME280;11154;48.558;9.234;2023-04-03T10:09:39;98291.38;;;14.79;33.84
21980;BME280;11154;48.558;9.234;2023-04-03T10:11:57;98298.22;;;14.81;33.55
21980;BME280;11154;48.558;9.234;2023-04-03T10:14:03;98289.69;;;14.86;33.36
21980;BME280;11154;48.558;9.234;2023-04-03T10:16:09;98291.03;;;14.90;33.18
21980;BME280;11154;48.558;9.234;2023-04-03T10:18:29;98288.84;;;14.85;32.82
21980;BME280;11154;48.558;9.234;2023-04-03T10:20:34;98298.91;;;14.83;32.96
21980;BME280;11154;48.558;9.234;2023-04-03T10:22:43;98291.03;;;14.82;32.70
21980;BME280;11154;48.558;9.234;2023-04-03T10:24:54;98282.66;;;14.85;32.69
21980;BME280;11154;48.558;9.234;2023-04-03T10:27:01;98295.06;;;14.86;32.25
21980;BME280;11154;48.558;9.234;2023-04-03T10:29:15;98297.22;;;14.90;32.35
21980;BME280;11154;48.558;9.234;2023-04-03T10:31:25;98279.13;;;14.92;32.02
21980;BME280;11154;48.558;9.234;2023-04-03T10:33:37;98286.66;;;14.97;31.80
21980;BME280;11154;48.558;9.234;2023-04-03T10:35:48;98290.16;;;15.05;31.49
21980;BME280;11154;48.558;9.234;2023-04-03T10:38:01;98290.97;;;15.21;31.38
21980;BME280;11154;48.558;9.234;2023-04-03T10:40:15;98281.25;;;15.28;31.21
21980;BME280;11154;48.558;9.234;2023-04-03T10:42:27;98282.25;;;15.27;31.53
21980;BME280;11154;48.558;9.234;2023-04-03T10:44:37;98284.31;;;15.25;31.26
21980;BME280;11154;48.558;9.234;2023-04-03T10:46:41;98277.25;;;15.16;30.68
21980;BME280;11154;48.558;9.234;2023-04-03T10:49:01;98276.56;;;15.14;31.09
21980;BME280;11154;48.558;9.234;2023-04-03T10:51:15;98281.44;;;15.19;30.69
21980;BME280;11154;48.558;9.234;2023-04-03T10:53:24;98283.97;;;15.05;30.34
21980;BME280;11154;48.558;9.234;2023-04-03T10:55:36;98280.81;;;15.01;30.47